Cokato, Minnesota
Current Conditions -  °F | °C
As of 4:54 PM on Saturday 25 Oct 2014 (Local Time) from KMGG Reporting Station
Clear Clear  
Wind Chill: 60°   Ceiling: Unl
Heat Index: 60°   Visibility: 10mi
Dew Point: 29°   Wind: 10mph
Humidity: 30%   Direction: 300°WNW
Pressure: 30.06"   Gusts: NA
Location:  45.08°N, 94.19°W
Report Text: KMGG 252154Z AUTO 30009KT 10SM CLR 16/M02 A3006 RMK AO2 T01571019
Loading
Personal Weather Stations






























Interactive Weather Map
Tropical Storm Tracking
New forecast layout! Learn more

10-Day Weather Forecast

Advertisements
Track Severe Weather on mobile